Time;durP1;ratioP1;P1;durP2;ratioP2;P2;SDS_P1;SDS_P2;PMS_P1;PMS_P2;Temp;Humidity;BMP_temperature;BMP_pressure;BME280_temperature;BME280_humidity;BME280_pressure;Samples;Min_cycle;Max_cycle;Signal;HPM_P1;HPM_P2
2023/04/21 00:00:11;;;;;;;31.98;19.95;;;5.40;99.90;;;;;;4969653;29;20031;-70
2023/04/21 05:01:42;;;;;;;39.58;22.50;;;4.90;99.90;;;;;;5956704;23;20034;31
2023/04/21 05:04:08;;;;;;;39.58;23.25;;;4.90;99.90;;;;;;4901837;29;20059;-72
2023/04/21 05:06:34;;;;;;;37.97;23.17;;;5.00;99.90;;;;;;4888347;29;20020;-72
2023/04/21 05:08:59;;;;;;;40.33;24.00;;;5.00;99.90;;;;;;4900792;29;20059;-71
2023/04/21 05:11:25;;;;;;;41.33;23.05;;;5.10;99.90;;;;;;4899973;29;20085;-70
2023/04/21 05:13:51;;;;;;;38.42;23.23;;;5.10;99.90;;;;;;4909511;29;20083;-71
2023/04/21 05:16:16;;;;;;;39.28;23.33;;;5.10;99.90;;;;;;4909902;29;20036;-69
2023/04/21 05:18:42;;;;;;;35.58;21.52;;;5.20;99.90;;;;;;4902559;29;20065;-69
2023/04/21 05:21:08;;;;;;;36.72;21.42;;;5.20;99.90;;;;;;4904095;29;20036;-71
2023/04/21 05:23:33;;;;;;;37.88;22.75;;;5.20;99.90;;;;;;4901767;29;20088;-70
2023/04/21 05:25:59;;;;;;;36.25;22.42;;;5.30;99.90;;;;;;4909432;29;20036;-71
2023/04/21 05:28:28;;;;;;;36.20;22.52;;;5.40;99.90;;;;;;4909806;29;20059;-72
2023/04/21 05:30:54;;;;;;;40.33;23.67;;;5.40;99.90;;;;;;4892283;29;20036;-71
2023/04/21 05:33:20;;;;;;;38.10;22.80;;;5.40;99.90;;;;;;4892837;29;20039;-70
2023/04/21 05:35:46;;;;;;;35.90;22.35;;;5.40;99.90;;;;;;4905034;29;20021;-71
2023/04/21 05:38:12;;;;;;;39.75;22.40;;;5.50;99.90;;;;;;4891747;29;20032;-71
2023/04/21 05:40:37;;;;;;;34.97;21.42;;;5.40;99.90;;;;;;4909051;29;20149;-70
2023/04/21 05:43:03;;;;;;;35.33;20.45;;;5.40;99.90;;;;;;4910021;29;20306;-71
2023/04/21 05:45:29;;;;;;;31.67;19.20;;;5.50;99.90;;;;;;4908815;29;20095;-71
2023/04/21 05:47:54;;;;;;;32.83;19.92;;;5.50;99.90;;;;;;4909133;29;20048;-71
2023/04/21 05:50:20;;;;;;;32.63;19.80;;;5.60;99.90;;;;;;4876964;29;20041;-70
2023/04/21 05:52:46;;;;;;;32.83;21.05;;;5.60;99.90;;;;;;4908822;29;20060;-70
2023/04/21 05:55:11;;;;;;;31.85;20.70;;;5.70;99.90;;;;;;4908994;29;20218;-72
2023/04/21 05:57:37;;;;;;;29.58;18.75;;;5.80;99.90;;;;;;4908299;29;20134;-71
2023/04/21 06:00:03;;;;;;;30.77;20.13;;;5.90;99.90;;;;;;4897606;29;20328;-70
2023/04/21 06:02:31;;;;;;;35.13;21.98;;;5.90;99.90;;;;;;4909506;29;20119;-69
2023/04/21 06:04:56;;;;;;;30.35;20.20;;;5.90;99.90;;;;;;4926883;29;20214;-70
2023/04/21 06:07:22;;;;;;;28.23;17.65;;;6.00;99.90;;;;;;4927474;29;20107;-73
2023/04/21 06:09:51;;;;;;;31.85;19.58;;;6.00;99.90;;;;;;4926729;29;20248;-70
2023/04/21 06:12:16;;;;;;;31.05;19.60;;;6.20;99.90;;;;;;4927469;29;20087;-71
2023/04/21 06:14:42;;;;;;;27.15;18.38;;;6.30;99.90;;;;;;4927098;29;20051;-73
2023/04/21 06:17:08;;;;;;;29.95;19.08;;;6.50;99.90;;;;;;4928486;29;20305;-72
2023/04/21 06:19:38;;;;;;;29.40;17.65;;;6.80;99.90;;;;;;4927325;29;20040;-71
2023/04/21 06:22:03;;;;;;;29.27;17.65;;;6.90;99.90;;;;;;4910849;29;20032;-70
2023/04/21 06:24:32;;;;;;;28.77;18.58;;;7.10;99.90;;;;;;4910579;29;20031;-72
2023/04/21 06:26:58;;;;;;;25.55;16.92;;;7.20;99.90;;;;;;4927436;29;20036;-71
2023/04/21 06:29:24;;;;;;;22.77;15.30;;;7.30;99.90;;;;;;4927289;29;20397;-72
2023/04/21 06:31:49;;;;;;;23.58;15.10;;;7.40;99.90;;;;;;4909968;29;20103;-70
2023/04/21 06:34:15;;;;;;;25.60;16.23;;;7.50;99.90;;;;;;4927285;29;20039;-71
2023/04/21 06:36:41;;;;;;;24.35;16.13;;;7.70;99.90;;;;;;4926766;29;20203;-71
2023/04/21 06:39:06;;;;;;;25.15;16.83;;;7.90;99.90;;;;;;4910625;29;20063;-69
2023/04/21 06:41:32;;;;;;;24.17;16.52;;;8.20;99.90;;;;;;4926121;29;20031;-71
2023/04/21 06:43:58;;;;;;;22.85;15.63;;;8.50;99.90;;;;;;4910049;29;20040;-71
2023/04/21 06:46:23;;;;;;;20.65;14.65;;;8.50;99.90;;;;;;4926835;29;20052;-70
2023/04/21 06:48:49;;;;;;;25.50;16.55;;;8.60;99.90;;;;;;4909310;29;20075;-69
2023/04/21 06:51:15;;;;;;;20.52;14.20;;;8.50;99.90;;;;;;4926717;29;20035;-72
2023/04/21 06:53:40;;;;;;;24.13;14.88;;;8.40;99.90;;;;;;4926355;29;20043;-71
2023/04/21 06:56:06;;;;;;;21.08;14.77;;;8.50;99.90;;;;;;4926993;29;20072;-72
2023/04/21 06:58:32;;;;;;;24.55;16.48;;;8.40;99.90;;;;;;4926142;29;20191;-69
2023/04/21 07:00:57;;;;;;;26.95;16.50;;;8.30;99.90;;;;;;4927076;29;20047;-72
2023/04/21 07:03:23;;;;;;;25.33;16.45;;;8.20;99.90;;;;;;4925214;29;20055;-70
2023/04/21 07:05:49;;;;;;;24.65;15.63;;;8.10;99.90;;;;;;4926350;29;20154;-70
2023/04/21 07:08:15;;;;;;;28.88;17.65;;;8.10;99.90;;;;;;4926555;29;20092;-70
2023/04/21 07:10:41;;;;;;;25.52;17.02;;;7.90;99.90;;;;;;4925868;29;20095;-71
2023/04/21 07:13:07;;;;;;;27.00;16.60;;;8.00;99.90;;;;;;4927155;29;20265;-70
2023/04/21 07:15:33;;;;;;;25.42;16.40;;;8.10;99.90;;;;;;4925988;29;20313;-70
2023/04/21 07:17:59;;;;;;;24.92;16.25;;;8.20;99.90;;;;;;4926544;29;20083;-69
2023/04/21 07:20:24;;;;;;;24.80;16.83;;;8.20;99.90;;;;;;4926823;29;20038;-69
2023/04/21 07:22:50;;;;;;;24.25;15.85;;;8.20;99.90;;;;;;4909283;29;20036;-70
2023/04/21 07:25:16;;;;;;;25.33;16.92;;;8.20;99.90;;;;;;4926823;29;20032;-69
2023/04/21 07:27:41;;;;;;;26.25;17.45;;;8.30;99.90;;;;;;4925930;29;20039;-69
2023/04/21 07:30:07;;;;;;;25.63;16.33;;;8.40;99.90;;;;;;4926062;29;20385;-70
2023/04/21 07:32:33;;;;;;;24.60;14.93;;;8.50;99.90;;;;;;4908749;29;20150;-71
2023/04/21 07:35:00;;;;;;;22.25;15.13;;;8.60;99.90;;;;;;4926315;29;20116;-69
2023/04/21 07:37:26;;;;;;;24.98;15.20;;;8.90;99.90;;;;;;4926461;29;20111;-70
2023/04/21 07:39:52;;;;;;;23.35;15.57;;;9.00;99.90;;;;;;4925836;29;20032;-69
2023/04/21 07:42:17;;;;;;;18.95;12.55;;;9.20;99.90;;;;;;4926279;29;20032;-70
2023/04/21 07:44:43;;;;;;;21.55;13.48;;;9.30;99.90;;;;;;4925495;29;20043;-70
2023/04/21 07:47:09;;;;;;;17.25;11.80;;;9.50;99.90;;;;;;4909202;29;20028;-69
2023/04/21 07:49:35;;;;;;;19.98;13.07;;;9.70;99.90;;;;;;4925798;29;20043;-71
2023/04/21 07:52:00;;;;;;;20.40;13.10;;;10.00;99.90;;;;;;4926310;29;20039;-70
2023/04/21 07:54:26;;;;;;;19.27;12.75;;;10.10;99.90;;;;;;4926311;29;20051;-70
2023/04/21 07:56:52;;;;;;;18.38;12.90;;;10.20;99.90;;;;;;4925892;29;20059;-70
2023/04/21 07:59:17;;;;;;;18.23;13.25;;;10.30;99.90;;;;;;4926123;29;20222;-69
2023/04/21 08:01:44;;;;;;;18.58;12.60;;;10.40;99.90;;;;;;4928093;29;20094;-71
2023/04/21 08:04:09;;;;;;;19.88;13.85;;;10.40;99.90;;;;;;4930053;29;20306;-70
2023/04/21 08:06:35;;;;;;;20.02;13.15;;;10.50;99.90;;;;;;4929413;29;20056;-69
2023/04/21 08:09:01;;;;;;;20.95;13.30;;;10.50;99.90;;;;;;4929631;29;20051;-71
2023/04/21 08:11:27;;;;;;;17.15;11.80;;;10.50;99.90;;;;;;4929774;29;20325;-69
2023/04/21 08:13:53;;;;;;;16.52;11.48;;;10.70;99.90;;;;;;4929034;29;20024;-69
2023/04/21 08:16:19;;;;;;;13.63;9.52;;;10.80;99.90;;;;;;4929580;29;20071;-69
2023/04/21 08:18:45;;;;;;;15.35;11.00;;;10.80;99.90;;;;;;4929176;29;20020;-71
2023/04/21 08:21:10;;;;;;;16.27;11.05;;;10.80;99.90;;;;;;4912744;29;20110;-70
2023/04/21 08:23:36;;;;;;;16.70;10.68;;;10.70;99.90;;;;;;4912722;29;20028;-71
2023/04/21 08:26:02;;;;;;;14.07;10.13;;;10.80;99.90;;;;;;4912506;29;20064;-72
2023/04/21 08:28:28;;;;;;;15.90;10.65;;;10.90;99.90;;;;;;4931059;29;20030;-72
2023/04/21 08:30:53;;;;;;;16.13;11.15;;;10.80;99.90;;;;;;4931730;29;20063;-67
2023/04/21 08:33:19;;;;;;;17.10;11.02;;;11.00;99.90;;;;;;4934204;29;20112;-68
2023/04/21 08:35:45;;;;;;;16.90;10.85;;;11.00;99.90;;;;;;4936430;29;20028;-68
2023/04/21 08:38:10;;;;;;;16.63;11.02;;;11.10;99.90;;;;;;4929378;29;20039;-70
2023/04/21 08:40:37;;;;;;;15.48;10.73;;;11.10;99.90;;;;;;4928778;29;20084;-70
2023/04/21 08:43:07;;;;;;;18.15;11.57;;;11.00;99.90;;;;;;4930171;29;20024;-70
2023/04/21 08:45:34;;;;;;;21.42;12.88;;;10.90;99.90;;;;;;4930347;29;20059;-68
2023/04/21 08:48:01;;;;;;;19.48;11.95;;;10.90;99.90;;;;;;4929129;29;20312;-69
2023/04/21 08:50:30;;;;;;;18.67;11.98;;;11.00;99.90;;;;;;4929257;29;20032;-69
2023/04/21 08:52:57;;;;;;;18.55;12.35;;;11.20;99.90;;;;;;4928979;29;20084;-70
2023/04/21 08:55:29;;;;;;;22.00;12.05;;;11.40;99.90;;;;;;4929121;29;20067;-69
2023/04/21 08:57:56;;;;;;;20.17;12.75;;;11.50;99.90;;;;;;4928983;29;20043;-69
2023/04/21 09:00:21;;;;;;;14.43;7.93;;;11.60;99.90;;;;;;4929022;29;20036;-70
2023/04/21 09:02:58;;;;;;;13.30;9.43;;;11.70;99.90;;;;;;4927793;29;20386;-70
2023/04/21 09:05:26;;;;;;;15.73;10.05;;;11.80;99.90;;;;;;4930998;29;20036;-71
2023/04/21 09:08:10;;;;;;;16.33;10.77;;;11.90;99.90;;;;;;4930450;29;20027;-70
2023/04/21 09:10:49;;;;;;;16.55;11.63;;;12.10;99.90;;;;;;4930767;29;20040;-71
2023/04/21 09:13:18;;;;;;;15.32;10.00;;;12.30;99.90;;;;;;4938184;29;20064;-70
2023/04/21 09:15:53;;;;;;;13.90;9.20;;;12.20;99.90;;;;;;4911594;29;20040;-69
2023/04/21 09:18:21;;;;;;;13.38;8.60;;;12.30;99.90;;;;;;4928958;29;20040;-70
2023/04/21 09:20:49;;;;;;;10.43;7.05;;;12.20;99.90;;;;;;4911497;29;20032;-70
2023/04/21 09:23:16;;;;;;;10.25;7.22;;;12.10;99.90;;;;;;4928371;29;20051;-70
2023/04/21 09:25:44;;;;;;;11.10;7.47;;;12.20;99.90;;;;;;4930704;29;20052;-69
2023/04/21 09:28:13;;;;;;;;;;;12.50;99.90;;;;;;4928950;29;20040;-69
2023/04/21 09:30:40;;;;;;;11.90;7.72;;;12.80;99.90;;;;;;4928017;29;19970;-69
2023/04/21 09:33:06;;;;;;;10.93;7.63;;;12.90;99.90;;;;;;4911369;29;20341;-72
2023/04/21 09:35:34;;;;;;;9.77;7.28;;;13.20;99.90;;;;;;4927625;29;20067;-69
2023/04/21 09:38:02;;;;;;;11.85;7.68;;;13.30;99.90;;;;;;4928304;29;20020;-72
2023/04/21 09:40:31;;;;;;;17.50;9.93;;;13.50;99.90;;;;;;4928463;29;20103;-70
2023/04/21 09:42:56;;;;;;;12.15;7.80;;;13.70;99.90;;;;;;4927976;29;20329;-70
2023/04/21 09:45:26;;;;;;;9.85;6.45;;;13.80;99.90;;;;;;4928252;29;20032;-71
2023/04/21 09:47:56;;;;;;;9.90;7.00;;;13.70;99.90;;;;;;4927839;29;20033;-70
2023/04/21 09:50:23;;;;;;;17.90;7.75;;;13.90;99.90;;;;;;4927820;29;20206;-72
2023/04/21 09:52:50;;;;;;;7.85;6.03;;;14.00;99.90;;;;;;4927426;29;20206;-69
2023/04/21 09:55:20;;;;;;;8.13;5.57;;;14.10;99.90;;;;;;4910887;29;20338;-70
2023/04/21 09:57:49;;;;;;;7.70;4.60;;;14.10;99.90;;;;;;4927747;29;20062;-69
2023/04/21 10:00:17;;;;;;;6.40;4.10;;;14.20;99.90;;;;;;4927951;29;20026;-71
2023/04/21 10:02:47;;;;;;;6.97;4.03;;;14.20;99.90;;;;;;4926691;29;20115;-71
2023/04/21 10:05:13;;;;;;;6.22;4.25;;;14.10;99.90;;;;;;4927957;29;20123;-71
2023/04/21 10:07:39;;;;;;;6.32;3.95;;;14.00;99.40;;;;;;4927312;29;20032;-69
2023/04/21 10:10:30;;;;;;;7.30;4.95;;;14.00;99.90;;;;;;4927088;29;20036;-71
2023/04/21 10:12:57;;;;;;;7.70;5.18;;;14.30;99.90;;;;;;4923155;29;20075;-72
2023/04/21 10:15:40;;;;;;;8.15;5.82;;;14.50;99.90;;;;;;4927552;29;20020;-69
2023/04/21 10:18:19;;;;;;;8.48;5.70;;;14.60;99.60;;;;;;4927539;29;20047;-69
2023/04/21 10:21:05;;;;;;;9.95;6.97;;;14.60;99.90;;;;;;4927072;29;20035;-70
2023/04/21 10:23:42;;;;;;;11.07;7.53;;;14.80;99.90;;;;;;4926790;29;20044;-70
2023/04/21 10:26:34;;;;;;;10.18;6.60;;;14.90;99.90;;;;;;4910245;29;20246;-71
2023/04/21 10:29:04;;;;;;;10.63;6.55;;;14.90;99.90;;;;;;4887473;29;20059;-69
2023/04/21 10:31:42;;;;;;;10.63;7.07;;;14.90;99.90;;;;;;4926669;29;20051;-72
2023/04/21 10:34:08;;;;;;;10.25;7.45;;;15.00;99.90;;;;;;4927020;29;20028;-71
2023/04/21 10:37:01;;;;;;;11.45;7.40;;;14.80;99.90;;;;;;4926449;29;20059;-71
2023/04/21 10:39:36;;;;;;;11.70;7.45;;;14.80;99.90;;;;;;4917211;29;20043;-71
2023/04/21 10:42:23;;;;;;;10.52;7.25;;;14.70;99.90;;;;;;4926913;29;20388;-70
2023/04/21 10:44:52;;;;;;;11.05;6.85;;;14.60;99.90;;;;;;4926818;29;20120;-71
2023/04/21 10:47:40;;;;;;;9.82;7.05;;;14.80;99.90;;;;;;4927341;29;20134;-71
2023/04/21 10:50:24;;;;;;;9.63;6.82;;;15.00;99.90;;;;;;4926957;29;20310;-71
2023/04/21 10:52:56;;;;;;;10.75;7.32;;;15.10;99.90;;;;;;4926617;29;20405;-71
2023/04/21 10:55:25;;;;;;;7.97;6.50;;;15.20;99.90;;;;;;4909764;29;20055;-70
2023/04/21 10:57:52;;;;;;;9.07;6.63;;;15.40;99.90;;;;;;4926173;29;20028;-70
2023/04/21 11:00:21;;;;;;;9.18;6.45;;;15.70;99.90;;;;;;4927009;29;20044;-71
2023/04/21 11:02:55;;;;;;;8.77;6.75;;;15.90;99.90;;;;;;4908921;29;20062;-71
2023/04/21 11:05:29;;;;;;;8.98;6.70;;;15.90;99.70;;;;;;4926718;29;20059;-70
2023/04/21 11:08:10;;;;;;;9.15;6.00;;;16.00;99.40;;;;;;4926225;29;20035;-72
2023/04/21 11:10:47;;;;;;;8.75;6.65;;;16.30;99.20;;;;;;4925982;29;20035;-70
2023/04/21 11:13:12;;;;;;;9.60;6.43;;;16.40;98.70;;;;;;4926332;29;20063;-69
2023/04/21 11:15:38;;;;;;;9.40;5.85;;;16.80;98.20;;;;;;4926407;29;20373;-71
2023/04/21 11:18:06;;;;;;;7.78;5.38;;;17.20;97.60;;;;;;4926615;29;20032;-70
2023/04/21 11:20:31;;;;;;;7.07;5.50;;;17.70;97.20;;;;;;4925920;29;20229;-71
2023/04/21 11:22:57;;;;;;;7.32;4.78;;;18.10;96.20;;;;;;4925229;29;20047;-72
2023/04/21 11:25:23;;;;;;;6.82;5.30;;;18.80;95.30;;;;;;4926419;29;20032;-69
2023/04/21 11:27:58;;;;;;;6.63;4.90;;;19.30;93.90;;;;;;4924936;29;20047;-69
2023/04/21 11:30:34;;;;;;;6.65;4.53;;;19.50;92.70;;;;;;4917017;29;20044;-69
2023/04/21 11:33:00;;;;;;;9.65;4.30;;;20.30;92.10;;;;;;4930516;29;20344;-70
2023/04/21 11:35:26;;;;;;;5.07;4.15;;;21.40;91.60;;;;;;4930210;29;20028;-70
2023/04/21 11:37:54;;;;;;;4.45;3.78;;;22.80;89.10;;;;;;4908908;29;20040;-68
2023/04/21 11:40:20;;;;;;;5.20;4.28;;;24.10;85.40;;;;;;4925989;29;20044;-72
2023/04/21 11:42:45;;;;;;;6.25;4.38;;;24.80;80.90;;;;;;4925265;29;20028;-71
2023/04/21 11:45:18;;;;;;;4.82;4.18;;;25.20;78.30;;;;;;4926381;29;20087;-71
2023/04/21 11:47:44;;;;;;;7.43;4.50;;;25.80;77.10;;;;;;4925722;29;20036;-70
2023/04/21 11:50:10;;;;;;;4.70;3.90;;;26.20;74.00;;;;;;4926161;29;20058;-70
2023/04/21 11:52:36;;;;;;;4.63;3.92;;;26.30;74.40;;;;;;4925754;29;20036;-70
2023/04/21 11:55:11;;;;;;;4.35;3.92;;;27.40;72.10;;;;;;4926422;29;20234;-70
2023/04/21 11:57:39;;;;;;;4.68;3.63;;;28.30;70.20;;;;;;4925520;29;20078;-72
2023/04/21 12:00:10;;;;;;;5.63;3.88;;;28.50;67.70;;;;;;4925954;29;20298;-70
2023/04/21 12:02:36;;;;;;;4.88;4.00;;;28.00;67.10;;;;;;4925392;29;20095;-70
2023/04/21 12:05:07;;;;;;;4.15;3.72;;;28.20;68.60;;;;;;4926316;29;20027;-68
2023/04/21 12:07:41;;;;;;;5.13;3.40;;;28.60;66.50;;;;;;4925413;29;20044;-69
2023/04/21 12:10:12;;;;;;;4.07;3.40;;;29.00;65.20;;;;;;4924535;29;20218;-69
2023/04/21 12:12:39;;;;;;;4.30;3.17;;;29.90;64.50;;;;;;4925570;29;20075;-69
2023/04/21 12:15:09;;;;;;;4.73;3.30;;;30.20;63.00;;;;;;4926236;29;20108;-70
2023/04/21 12:17:42;;;;;;;4.13;3.38;;;29.90;62.00;;;;;;4908535;29;20483;-70
2023/04/21 12:20:08;;;;;;;3.42;2.92;;;29.90;62.00;;;;;;4912841;29;20028;-71
2023/04/21 12:22:34;;;;;;;3.05;2.50;;;29.60;62.70;;;;;;4925348;29;20056;-71
2023/04/21 12:25:00;;;;;;;5.68;3.60;;;30.10;62.10;;;;;;4925925;29;20261;-71
2023/04/21 12:27:27;;;;;;;3.90;3.50;;;30.80;60.80;;;;;;4926089;29;20036;-71
2023/04/21 12:29:53;;;;;;;3.42;3.03;;;30.30;59.90;;;;;;4925411;29;20020;-71
2023/04/21 12:32:20;;;;;;;3.78;2.92;;;29.50;60.10;;;;;;4925849;29;20040;-71
2023/04/21 12:34:45;;;;;;;3.20;2.80;;;30.70;60.30;;;;;;4922930;29;20032;-71
2023/04/21 12:37:11;;;;;;;2.90;2.40;;;31.90;58.60;;;;;;4925965;29;20035;-71
2023/04/21 12:39:37;;;;;;;4.28;2.42;;;31.90;58.90;;;;;;4925150;29;20195;-72
2023/04/21 12:42:03;;;;;;;4.68;2.65;;;31.90;57.60;;;;;;4925946;29;20071;-70
2023/04/21 12:44:29;;;;;;;5.15;2.42;;;31.70;58.00;;;;;;4908955;29;20067;-70
2023/04/21 12:46:56;;;;;;;3.55;2.72;;;31.20;58.10;;;;;;4926743;29;20028;-70
2023/04/21 12:49:22;;;;;;;3.70;2.33;;;31.50;57.10;;;;;;4929427;29;20036;-69
2023/04/21 12:51:48;;;;;;;2.95;2.30;;;31.90;56.80;;;;;;4929061;29;20055;-69
2023/04/21 12:54:14;;;;;;;2.80;1.88;;;32.00;57.80;;;;;;4929349;29;20108;-71
2023/04/21 12:56:41;;;;;;;2.90;1.80;;;32.70;56.80;;;;;;4929253;29;20267;-72
2023/04/21 12:59:09;;;;;;;2.90;2.33;;;33.00;56.80;;;;;;4929987;29;20039;-72
2023/04/21 13:01:35;;;;;;;;;;;33.30;54.50;;;;;;4929177;29;20044;-72
2023/04/21 13:04:02;;;;;;;3.33;2.63;;;32.90;54.90;;;;;;4929584;29;20077;-71
2023/04/21 13:06:27;;;;;;;2.97;2.45;;;32.90;54.30;;;;;;4929689;29;20047;-71
2023/04/21 13:08:53;;;;;;;2.95;2.47;;;33.00;54.30;;;;;;4928175;29;20228;-71
2023/04/21 13:11:19;;;;;;;2.25;1.70;;;33.60;53.90;;;;;;4928441;29;20059;-71
2023/04/21 13:13:45;;;;;;;2.80;2.20;;;33.60;54.80;;;;;;4928125;29;20075;-71
2023/04/21 13:16:10;;;;;;;3.45;2.03;;;33.80;53.00;;;;;;4928407;29;20230;-71
2023/04/21 13:18:37;;;;;;;4.35;2.17;;;34.00;53.40;;;;;;4928129;29;20028;-71
2023/04/21 13:21:03;;;;;;;2.85;1.90;;;35.00;53.20;;;;;;4928699;29;20044;-72
2023/04/21 13:23:29;;;;;;;3.08;2.17;;;36.30;52.10;;;;;;4928134;29;20326;-69
2023/04/21 13:25:55;;;;;;;3.60;1.83;;;35.40;51.10;;;;;;4928023;29;20310;-70
2023/04/21 13:28:21;;;;;;;3.47;1.75;;;36.20;51.70;;;;;;4928715;29;20043;-71
2023/04/21 13:30:47;;;;;;;3.90;2.00;;;36.00;50.40;;;;;;4927964;29;20088;-70
2023/04/21 13:33:13;;;;;;;2.97;1.83;;;35.60;51.30;;;;;;4925986;29;20028;-69
2023/04/21 13:35:39;;;;;;;3.30;2.00;;;35.20;51.30;;;;;;4926898;29;20075;-71
2023/04/21 13:38:05;;;;;;;3.22;1.80;;;35.10;51.20;;;;;;4928286;29;20217;-71
2023/04/21 13:40:31;;;;;;;2.60;1.90;;;35.40;52.00;;;;;;4927684;29;20028;-72
2023/04/21 13:42:58;;;;;;;3.33;2.30;;;35.30;50.20;;;;;;4928163;29;20040;-71
2023/04/21 13:45:25;;;;;;;2.65;2.00;;;35.80;49.30;;;;;;4928233;29;20053;-75
2023/04/21 13:47:51;;;;;;;2.30;1.83;;;35.40;49.40;;;;;;4927544;29;20477;-71
2023/04/21 13:50:17;;;;;;;2.70;2.00;;;35.20;51.30;;;;;;4911376;29;20044;-73
2023/04/21 13:52:43;;;;;;;4.55;2.15;;;34.90;49.80;;;;;;4927295;29;20226;-70
2023/04/21 13:55:10;;;;;;;2.85;1.90;;;34.70;50.00;;;;;;4928430;29;20035;-72
2023/04/21 13:57:36;;;;;;;2.87;1.80;;;34.60;50.20;;;;;;4927742;29;20297;-71
2023/04/21 14:00:10;;;;;;;2.83;1.80;;;34.90;49.90;;;;;;4927619;29;20103;-72
2023/04/21 14:02:36;;;;;;;4.18;1.90;;;35.80;50.70;;;;;;4927339;29;20349;-74
2023/04/21 14:05:03;;;;;;;3.03;2.00;;;36.70;50.50;;;;;;4927990;29;20044;-76
2023/04/21 14:07:29;;;;;;;3.23;1.60;;;37.20;49.20;;;;;;4927606;29;20032;-73
2023/04/21 14:09:55;;;;;;;2.65;1.80;;;38.20;47.80;;;;;;4926809;29;20840;-70
2023/04/21 14:12:21;;;;;;;3.25;1.70;;;37.80;47.20;;;;;;4927745;29;20040;-71
2023/04/21 14:14:46;;;;;;;3.30;2.00;;;36.80;47.60;;;;;;4927030;29;20263;-71
2023/04/21 14:17:14;;;;;;;2.08;1.50;;;36.80;47.80;;;;;;4927693;29;20116;-71
2023/04/21 14:19:40;;;;;;;2.20;1.50;;;36.40;47.90;;;;;;4927192;29;20104;-71
2023/04/21 14:22:06;;;;;;;3.13;1.65;;;36.70;47.40;;;;;;4927769;29;20095;-71
2023/04/21 14:24:31;;;;;;;2.72;1.70;;;36.70;49.80;;;;;;4926690;29;20032;-70
2023/04/21 14:26:58;;;;;;;3.20;1.40;;;37.20;47.40;;;;;;4927474;29;20040;-70
2023/04/21 14:29:24;;;;;;;2.83;1.50;;;37.90;46.80;;;;;;4927320;29;20043;-71
2023/04/21 14:31:50;;;;;;;2.97;1.27;;;37.90;46.00;;;;;;4926700;29;20174;-71
2023/04/21 14:34:15;;;;;;;2.20;1.10;;;38.20;46.80;;;;;;4925453;29;20036;-71
2023/04/21 14:36:41;;;;;;;3.08;1.50;;;38.40;46.00;;;;;;4926408;29;20326;-71
2023/04/21 14:39:08;;;;;;;2.63;1.50;;;38.80;46.00;;;;;;4927216;29;20072;-71
2023/04/21 14:41:34;;;;;;;2.05;1.15;;;39.00;45.70;;;;;;4926440;29;20074;-72
2023/04/21 14:44:02;;;;;;;2.05;1.40;;;38.60;45.20;;;;;;4927162;29;20036;-70
2023/04/21 14:46:27;;;;;;;;;;;39.60;45.70;;;;;;4927361;29;20055;-71
2023/04/21 14:48:54;;;;;;;1.40;0.90;;;39.40;45.50;;;;;;4926717;29;20097;-71
2023/04/21 14:51:20;;;;;;;2.70;1.00;;;37.80;43.80;;;;;;4926726;29;20020;-71
2023/04/21 14:53:46;;;;;;;2.45;0.80;;;37.00;44.10;;;;;;4926683;29;20035;-72
2023/04/21 14:56:12;;;;;;;1.50;0.80;;;37.60;43.70;;;;;;4926691;29;20044;-71
2023/04/21 14:58:37;;;;;;;1.75;1.10;;;36.80;44.40;;;;;;4926306;29;20040;-72
2023/04/21 15:01:03;;;;;;;2.58;0.90;;;35.80;46.10;;;;;;4910180;29;20047;-72
2023/04/21 15:03:30;;;;;;;2.03;1.10;;;34.70;46.20;;;;;;4926319;29;20037;-71
2023/04/21 15:05:55;;;;;;;3.33;1.13;;;35.90;45.90;;;;;;4926466;29;20365;-71
2023/04/21 15:08:21;;;;;;;2.30;1.02;;;36.20;44.90;;;;;;4926897;29;20051;-70
2023/04/21 15:10:47;;;;;;;1.80;1.02;;;36.70;44.80;;;;;;4925491;29;20036;-72
2023/04/21 15:13:13;;;;;;;1.98;1.00;;;36.20;44.20;;;;;;4909773;29;20032;-71
2023/04/21 15:15:42;;;;;;;1.50;0.97;;;36.00;44.90;;;;;;4926330;29;20060;-73
2023/04/21 15:18:08;;;;;;;1.48;0.90;;;36.60;44.80;;;;;;4926670;29;20048;-71
2023/04/21 15:20:33;;;;;;;1.70;1.00;;;36.70;45.20;;;;;;4926116;29;20353;-71
2023/04/21 15:22:59;;;;;;;2.13;0.80;;;36.80;45.20;;;;;;4926778;29;20028;-72
2023/04/21 15:25:25;;;;;;;2.55;1.20;;;36.10;45.80;;;;;;4926671;29;20088;-71
2023/04/21 15:27:51;;;;;;;1.77;1.02;;;35.70;46.10;;;;;;4926163;29;20439;-71
2023/04/21 15:30:16;;;;;;;2.53;1.20;;;34.60;46.10;;;;;;4926470;29;20040;-71
2023/04/21 15:32:42;;;;;;;2.28;1.05;;;32.60;48.90;;;;;;4924274;29;20055;-71
2023/04/21 15:35:08;;;;;;;2.55;1.50;;;31.30;50.30;;;;;;4925623;29;20036;-72
2023/04/21 15:37:40;;;;;;;3.25;1.23;;;31.40;50.80;;;;;;4926175;29;20044;-72
2023/04/21 15:40:07;;;;;;;2.75;1.10;;;31.30;50.40;;;;;;4926453;29;20028;-72
2023/04/21 15:42:33;;;;;;;2.00;1.13;;;32.10;50.80;;;;;;4925878;29;20030;-73
2023/04/21 15:45:00;;;;;;;2.10;1.00;;;33.80;48.20;;;;;;4926198;29;20028;-72
2023/04/21 15:47:26;;;;;;;;;;;34.50;47.40;;;;;;4926863;29;20040;-71
2023/04/21 15:49:53;;;;;;;1.92;1.00;;;34.90;46.70;;;;;;4925936;29;19915;-71
2023/04/21 15:52:18;;;;;;;1.70;1.10;;;35.50;47.10;;;;;;4926433;29;20036;-72
2023/04/21 15:54:45;;;;;;;2.20;1.05;;;36.00;47.80;;;;;;4926166;29;20016;-71
2023/04/21 15:57:10;;;;;;;2.75;1.10;;;37.00;45.80;;;;;;4926269;29;20044;-71
2023/04/21 15:59:36;;;;;;;2.30;1.30;;;37.30;45.70;;;;;;4925495;29;20040;-71
2023/04/21 16:02:02;;;;;;;2.05;1.10;;;36.40;46.30;;;;;;4925905;29;20392;-73
2023/04/21 16:04:28;;;;;;;2.15;1.00;;;35.90;45.80;;;;;;4925907;29;20036;-72
2023/04/21 16:06:54;;;;;;;1.92;1.00;;;36.10;48.00;;;;;;4925635;29;20038;-71
2023/04/21 16:09:20;;;;;;;4.20;1.40;;;36.30;46.10;;;;;;4925842;29;20032;-72
2023/04/21 16:11:48;;;;;;;2.47;1.27;;;35.40;46.00;;;;;;4925646;29;20035;-71
2023/04/21 16:14:15;;;;;;;1.75;1.25;;;34.10;47.30;;;;;;4925840;29;20226;-72
2023/04/21 16:16:42;;;;;;;2.80;1.38;;;33.20;48.40;;;;;;4925418;29;20064;-72
2023/04/21 16:19:08;;;;;;;2.40;1.48;;;33.20;49.80;;;;;;4926104;29;20036;-72
2023/04/21 16:21:35;;;;;;;2.42;1.40;;;32.30;48.60;;;;;;4925939;29;20310;-72
2023/04/21 16:24:01;;;;;;;3.35;1.63;;;32.00;49.80;;;;;;4929894;29;20051;-71
2023/04/21 16:26:27;;;;;;;3.15;1.35;;;32.20;49.60;;;;;;4929898;29;20066;-72
2023/04/21 16:28:54;;;;;;;2.47;1.10;;;33.00;49.10;;;;;;4929354;29;20048;-73
2023/04/21 16:31:20;;;;;;;1.85;1.08;;;32.70;49.00;;;;;;4929650;29;20045;-71
2023/04/21 16:33:46;;;;;;;2.30;1.27;;;31.40;50.50;;;;;;4926161;29;20032;-72
2023/04/21 16:36:12;;;;;;;2.88;1.30;;;30.60;53.10;;;;;;4929204;29;20035;-71
2023/04/21 16:38:37;;;;;;;2.00;1.30;;;30.90;51.80;;;;;;4928630;29;20035;-71
2023/04/21 16:41:03;;;;;;;1.85;1.20;;;30.70;51.50;;;;;;4929439;29;20036;-71
2023/04/21 16:43:29;;;;;;;1.83;1.25;;;30.70;53.50;;;;;;4929500;29;20297;-70
2023/04/21 16:45:55;;;;;;;2.47;1.33;;;30.30;52.50;;;;;;4928774;29;20028;-71
2023/04/21 16:48:20;;;;;;;2.10;1.35;;;29.40;52.90;;;;;;4929223;29;20024;-72
2023/04/21 16:50:46;;;;;;;2.85;1.70;;;28.50;54.80;;;;;;4927719;29;20031;-72
2023/04/21 16:53:12;;;;;;;2.50;1.30;;;27.80;55.50;;;;;;4929191;29;20217;-71
2023/04/21 16:55:37;;;;;;;2.13;1.33;;;27.10;58.70;;;;;;4929152;29;20028;-72
2023/04/21 16:58:03;;;;;;;3.95;2.10;;;26.40;58.40;;;;;;4928990;29;20096;-71
2023/04/21 17:00:29;;;;;;;3.17;1.67;;;25.20;59.60;;;;;;4927934;29;20040;-71
2023/04/21 17:03:02;;;;;;;3.03;1.88;;;24.50;61.40;;;;;;4928313;29;20071;-78
2023/04/21 17:05:27;;;;;;;3.13;1.80;;;24.00;61.80;;;;;;4912533;29;20048;-72
2023/04/21 17:07:53;;;;;;;3.85;1.98;;;23.80;63.20;;;;;;4928176;29;20056;-72
2023/04/21 17:10:19;;;;;;;3.42;1.70;;;23.30;64.30;;;;;;4928409;29;20032;-72
2023/04/21 17:12:45;;;;;;;3.00;1.55;;;22.60;64.60;;;;;;4927683;29;20064;-72
2023/04/21 17:15:11;;;;;;;3.97;1.75;;;22.20;65.50;;;;;;4928728;29;20217;-70
2023/04/21 17:17:41;;;;;;;3.97;1.95;;;21.90;66.70;;;;;;4928184;29;20043;-72
2023/04/21 17:20:09;;;;;;;3.75;1.90;;;21.70;66.90;;;;;;4916256;29;20032;-71
2023/04/21 17:22:35;;;;;;;3.08;1.55;;;21.60;67.10;;;;;;4930246;29;20040;-72
2023/04/21 17:25:03;;;;;;;3.03;1.67;;;21.50;67.20;;;;;;4932567;29;20095;-70
2023/04/21 17:27:29;;;;;;;2.83;1.52;;;21.30;67.80;;;;;;4894851;29;20063;-69
2023/04/21 17:29:55;;;;;;;2.30;1.15;;;21.10;69.50;;;;;;4913413;29;20056;-70
2023/04/21 17:32:21;;;;;;;3.00;1.27;;;20.90;72.00;;;;;;4915920;29;20353;-71
2023/04/21 17:34:47;;;;;;;2.72;1.10;;;20.20;78.10;;;;;;4908723;29;20044;-72
2023/04/21 17:37:13;;;;;;;3.63;1.35;;;19.50;78.40;;;;;;4909246;29;20036;-71
2023/04/21 17:39:39;;;;;;;3.13;1.02;;;19.00;86.50;;;;;;4897182;29;20358;-72
2023/04/21 17:42:05;;;;;;;3.55;1.40;;;18.80;85.40;;;;;;4907756;29;20064;-70